sensor_id;sensor_type;location;lat;lon;timestamp;P1;durP1;ratioP1;P2;durP2;ratioP2
14276;SDS011;7222;57.346;12.150;2023-11-21T00:01:00;5.13;;;3.30;;
14276;SDS011;7222;57.346;12.150;2023-11-21T00:03:29;5.33;;;3.30;;
14276;SDS011;7222;57.346;12.150;2023-11-21T00:05:55;5.50;;;3.80;;
14276;SDS011;7222;57.346;12.150;2023-11-21T00:08:24;6.03;;;4.03;;
14276;SDS011;7222;57.346;12.150;2023-11-21T00:10:51;5.63;;;3.10;;
14276;SDS011;7222;57.346;12.150;2023-11-21T00:13:17;5.23;;;3.27;;
14276;SDS011;7222;57.346;12.150;2023-11-21T00:15:44;5.07;;;3.20;;
14276;SDS011;7222;57.346;12.150;2023-11-21T00:18:11;5.73;;;3.90;;
14276;SDS011;7222;57.346;12.150;2023-11-21T00:20:39;4.47;;;3.80;;
14276;SDS011;7222;57.346;12.150;2023-11-21T00:23:05;2.83;;;1.60;;
14276;SDS011;7222;57.346;12.150;2023-11-21T00:25:35;6.20;;;4.10;;
14276;SDS011;7222;57.346;12.150;2023-11-21T00:28:02;3.97;;;2.93;;
14276;SDS011;7222;57.346;12.150;2023-11-21T00:30:31;6.43;;;4.13;;
14276;SDS011;7222;57.346;12.150;2023-11-21T00:32:58;4.83;;;3.23;;
14276;SDS011;7222;57.346;12.150;2023-11-21T00:35:25;5.17;;;3.60;;
14276;SDS011;7222;57.346;12.150;2023-11-21T00:37:52;7.03;;;4.37;;
14276;SDS011;7222;57.346;12.150;2023-11-21T00:40:18;4.93;;;3.63;;
14276;SDS011;7222;57.346;12.150;2023-11-21T00:42:47;4.83;;;3.30;;
14276;SDS011;7222;57.346;12.150;2023-11-21T00:45:14;5.13;;;3.43;;
14276;SDS011;7222;57.346;12.150;2023-11-21T00:47:41;4.50;;;3.10;;
14276;SDS011;7222;57.346;12.150;2023-11-21T00:50:08;4.20;;;3.33;;
14276;SDS011;7222;57.346;12.150;2023-11-21T00:52:35;4.93;;;3.70;;
14276;SDS011;7222;57.346;12.150;2023-11-21T00:55:02;5.47;;;4.23;;
14276;SDS011;7222;57.346;12.150;2023-11-21T00:57:29;6.53;;;4.03;;
14276;SDS011;7222;57.346;12.150;2023-11-21T00:59:58;4.80;;;3.30;;
14276;SDS011;7222;57.346;12.150;2023-11-21T01:02:24;4.03;;;3.07;;
14276;SDS011;7222;57.346;12.150;2023-11-21T01:04:52;3.73;;;2.53;;
14276;SDS011;7222;57.346;12.150;2023-11-21T01:07:18;4.73;;;3.07;;
14276;SDS011;7222;57.346;12.150;2023-11-21T01:09:46;5.03;;;3.30;;
14276;SDS011;7222;57.346;12.150;2023-11-21T01:12:13;4.83;;;3.40;;
14276;SDS011;7222;57.346;12.150;2023-11-21T01:14:41;4.70;;;3.60;;
14276;SDS011;7222;57.346;12.150;2023-11-21T01:17:09;5.43;;;3.13;;
14276;SDS011;7222;57.346;12.150;2023-11-21T01:19:36;5.97;;;4.10;;
14276;SDS011;7222;57.346;12.150;2023-11-21T01:22:03;6.63;;;3.53;;
14276;SDS011;7222;57.346;12.150;2023-11-21T01:24:30;8.00;;;3.57;;
14276;SDS011;7222;57.346;12.150;2023-11-21T01:26:57;4.17;;;3.73;;
14276;SDS011;7222;57.346;12.150;2023-11-21T01:29:24;4.47;;;3.03;;
14276;SDS011;7222;57.346;12.150;2023-11-21T01:31:50;4.40;;;3.30;;
14276;SDS011;7222;57.346;12.150;2023-11-21T01:34:19;6.00;;;3.20;;
14276;SDS011;7222;57.346;12.150;2023-11-21T01:36:46;4.90;;;3.27;;
14276;SDS011;7222;57.346;12.150;2023-11-21T01:39:13;5.37;;;3.87;;
14276;SDS011;7222;57.346;12.150;2023-11-21T01:41:41;6.13;;;3.93;;
14276;SDS011;7222;57.346;12.150;2023-11-21T01:44:09;6.50;;;4.20;;
14276;SDS011;7222;57.346;12.150;2023-11-21T01:46:36;4.57;;;3.40;;
14276;SDS011;7222;57.346;12.150;2023-11-21T01:49:03;6.17;;;3.97;;
14276;SDS011;7222;57.346;12.150;2023-11-21T01:51:32;5.23;;;3.73;;
14276;SDS011;7222;57.346;12.150;2023-11-21T01:54:00;5.33;;;3.77;;
14276;SDS011;7222;57.346;12.150;2023-11-21T01:56:26;5.70;;;3.87;;
14276;SDS011;7222;57.346;12.150;2023-11-21T01:58:56;5.30;;;3.27;;
14276;SDS011;7222;57.346;12.150;2023-11-21T02:01:22;6.10;;;3.33;;
14276;SDS011;7222;57.346;12.150;2023-11-21T02:03:50;5.60;;;3.93;;
14276;SDS011;7222;57.346;12.150;2023-11-21T02:06:18;4.63;;;3.70;;
14276;SDS011;7222;57.346;12.150;2023-11-21T02:08:46;4.70;;;3.57;;
14276;SDS011;7222;57.346;12.150;2023-11-21T02:11:14;5.60;;;3.60;;
14276;SDS011;7222;57.346;12.150;2023-11-21T02:13:41;6.93;;;4.43;;
14276;SDS011;7222;57.346;12.150;2023-11-21T02:16:08;4.60;;;3.63;;
14276;SDS011;7222;57.346;12.150;2023-11-21T02:18:35;6.37;;;4.20;;
14276;SDS011;7222;57.346;12.150;2023-11-21T02:21:03;6.00;;;4.00;;
14276;SDS011;7222;57.346;12.150;2023-11-21T02:23:32;7.73;;;4.07;;
14276;SDS011;7222;57.346;12.150;2023-11-21T02:25:59;6.70;;;4.20;;
14276;SDS011;7222;57.346;12.150;2023-11-21T02:28:29;4.60;;;3.50;;
14276;SDS011;7222;57.346;12.150;2023-11-21T02:30:58;4.83;;;3.53;;
14276;SDS011;7222;57.346;12.150;2023-11-21T02:33:25;5.63;;;4.40;;
14276;SDS011;7222;57.346;12.150;2023-11-21T02:35:51;7.30;;;3.90;;
14276;SDS011;7222;57.346;12.150;2023-11-21T02:38:19;6.30;;;4.10;;
14276;SDS011;7222;57.346;12.150;2023-11-21T02:40:48;6.47;;;3.77;;
14276;SDS011;7222;57.346;12.150;2023-11-21T02:43:15;5.67;;;3.50;;
14276;SDS011;7222;57.346;12.150;2023-11-21T02:45:42;5.80;;;4.20;;
14276;SDS011;7222;57.346;12.150;2023-11-21T02:48:09;5.60;;;4.00;;
14276;SDS011;7222;57.346;12.150;2023-11-21T02:50:35;5.67;;;3.77;;
14276;SDS011;7222;57.346;12.150;2023-11-21T02:53:02;6.50;;;4.07;;
14276;SDS011;7222;57.346;12.150;2023-11-21T02:55:31;6.20;;;3.97;;
14276;SDS011;7222;57.346;12.150;2023-11-21T02:58:01;5.53;;;4.10;;
14276;SDS011;7222;57.346;12.150;2023-11-21T03:00:28;6.93;;;4.13;;
14276;SDS011;7222;57.346;12.150;2023-11-21T03:02:55;5.80;;;3.83;;
14276;SDS011;7222;57.346;12.150;2023-11-21T03:05:23;7.77;;;4.20;;
14276;SDS011;7222;57.346;12.150;2023-11-21T03:07:50;7.73;;;4.57;;
14276;SDS011;7222;57.346;12.150;2023-11-21T03:10:17;6.10;;;4.00;;
14276;SDS011;7222;57.346;12.150;2023-11-21T03:12:44;6.37;;;4.33;;
14276;SDS011;7222;57.346;12.150;2023-11-21T03:15:12;5.50;;;3.63;;
14276;SDS011;7222;57.346;12.150;2023-11-21T03:17:39;5.07;;;3.47;;
14276;SDS011;7222;57.346;12.150;2023-11-21T03:20:07;6.60;;;4.30;;
14276;SDS011;7222;57.346;12.150;2023-11-21T03:22:36;5.13;;;3.87;;
14276;SDS011;7222;57.346;12.150;2023-11-21T03:25:03;6.83;;;4.40;;
14276;SDS011;7222;57.346;12.150;2023-11-21T03:27:31;7.77;;;4.77;;
14276;SDS011;7222;57.346;12.150;2023-11-21T03:29:58;5.57;;;4.23;;
14276;SDS011;7222;57.346;12.150;2023-11-21T03:32:26;5.23;;;3.73;;
14276;SDS011;7222;57.346;12.150;2023-11-21T03:34:53;6.40;;;4.57;;
14276;SDS011;7222;57.346;12.150;2023-11-21T03:37:21;6.73;;;3.73;;
14276;SDS011;7222;57.346;12.150;2023-11-21T03:39:48;5.27;;;3.97;;
14276;SDS011;7222;57.346;12.150;2023-11-21T03:42:15;7.23;;;4.50;;
14276;SDS011;7222;57.346;12.150;2023-11-21T03:44:42;4.13;;;3.57;;
14276;SDS011;7222;57.346;12.150;2023-11-21T03:47:09;4.53;;;3.50;;
14276;SDS011;7222;57.346;12.150;2023-11-21T03:49:37;6.10;;;4.00;;
14276;SDS011;7222;57.346;12.150;2023-11-21T03:52:05;5.50;;;4.43;;
14276;SDS011;7222;57.346;12.150;2023-11-21T03:54:32;6.53;;;4.33;;
14276;SDS011;7222;57.346;12.150;2023-11-21T03:56:59;6.17;;;4.10;;
14276;SDS011;7222;57.346;12.150;2023-11-21T03:59:26;6.37;;;4.27;;
14276;SDS011;7222;57.346;12.150;2023-11-21T04:01:54;6.77;;;3.83;;
14276;SDS011;7222;57.346;12.150;2023-11-21T04:04:21;6.03;;;4.63;;
14276;SDS011;7222;57.346;12.150;2023-11-21T04:06:50;7.00;;;4.30;;
14276;SDS011;7222;57.346;12.150;2023-11-21T04:09:17;5.70;;;3.60;;
14276;SDS011;7222;57.346;12.150;2023-11-21T04:11:44;7.13;;;4.93;;
14276;SDS011;7222;57.346;12.150;2023-11-21T04:14:11;5.70;;;3.90;;
14276;SDS011;7222;57.346;12.150;2023-11-21T04:16:38;5.67;;;4.23;;
14276;SDS011;7222;57.346;12.150;2023-11-21T04:19:06;7.13;;;4.07;;
14276;SDS011;7222;57.346;12.150;2023-11-21T04:21:34;6.27;;;4.30;;
14276;SDS011;7222;57.346;12.150;2023-11-21T04:24:02;5.87;;;4.10;;
14276;SDS011;7222;57.346;12.150;2023-11-21T04:26:30;5.20;;;3.83;;
14276;SDS011;7222;57.346;12.150;2023-11-21T04:28:57;6.27;;;4.23;;
14276;SDS011;7222;57.346;12.150;2023-11-21T04:31:23;5.30;;;3.90;;
14276;SDS011;7222;57.346;12.150;2023-11-21T04:33:50;5.43;;;4.57;;
14276;SDS011;7222;57.346;12.150;2023-11-21T04:36:17;6.20;;;4.13;;
14276;SDS011;7222;57.346;12.150;2023-11-21T04:38:44;6.07;;;4.00;;
14276;SDS011;7222;57.346;12.150;2023-11-21T04:41:12;5.70;;;4.37;;
14276;SDS011;7222;57.346;12.150;2023-11-21T04:43:39;5.13;;;3.93;;
14276;SDS011;7222;57.346;12.150;2023-11-21T04:46:07;7.83;;;4.47;;
14276;SDS011;7222;57.346;12.150;2023-11-21T04:48:42;5.20;;;3.90;;
14276;SDS011;7222;57.346;12.150;2023-11-21T04:51:09;6.27;;;4.37;;
14276;SDS011;7222;57.346;12.150;2023-11-21T04:53:36;4.67;;;3.80;;
14276;SDS011;7222;57.346;12.150;2023-11-21T04:56:04;5.57;;;4.23;;
14276;SDS011;7222;57.346;12.150;2023-11-21T04:58:34;6.47;;;3.83;;
14276;SDS011;7222;57.346;12.150;2023-11-21T05:01:01;7.70;;;4.30;;
14276;SDS011;7222;57.346;12.150;2023-11-21T05:03:28;6.37;;;4.00;;
14276;SDS011;7222;57.346;12.150;2023-11-21T05:05:56;6.53;;;4.13;;
14276;SDS011;7222;57.346;12.150;2023-11-21T05:08:22;6.77;;;3.97;;
14276;SDS011;7222;57.346;12.150;2023-11-21T05:10:49;3.67;;;3.03;;
14276;SDS011;7222;57.346;12.150;2023-11-21T05:13:17;5.13;;;3.67;;
14276;SDS011;7222;57.346;12.150;2023-11-21T05:15:45;6.20;;;3.73;;
14276;SDS011;7222;57.346;12.150;2023-11-21T05:18:12;5.70;;;4.27;;
14276;SDS011;7222;57.346;12.150;2023-11-21T05:20:39;4.10;;;3.30;;
14276;SDS011;7222;57.346;12.150;2023-11-21T05:23:07;4.53;;;3.27;;
14276;SDS011;7222;57.346;12.150;2023-11-21T05:25:34;6.80;;;3.77;;
14276;SDS011;7222;57.346;12.150;2023-11-21T05:28:01;5.73;;;3.40;;
14276;SDS011;7222;57.346;12.150;2023-11-21T05:30:29;6.27;;;4.37;;
14276;SDS011;7222;57.346;12.150;2023-11-21T05:32:57;6.60;;;4.17;;
14276;SDS011;7222;57.346;12.150;2023-11-21T05:35:24;5.70;;;3.80;;
14276;SDS011;7222;57.346;12.150;2023-11-21T05:37:51;5.20;;;3.30;;
14276;SDS011;7222;57.346;12.150;2023-11-21T05:40:18;6.50;;;4.37;;
14276;SDS011;7222;57.346;12.150;2023-11-21T05:42:47;5.53;;;3.60;;
14276;SDS011;7222;57.346;12.150;2023-11-21T05:45:16;6.20;;;3.90;;
14276;SDS011;7222;57.346;12.150;2023-11-21T05:47:44;5.87;;;4.00;;
14276;SDS011;7222;57.346;12.150;2023-11-21T05:50:14;5.30;;;3.50;;
14276;SDS011;7222;57.346;12.150;2023-11-21T05:52:42;6.07;;;3.90;;
14276;SDS011;7222;57.346;12.150;2023-11-21T05:55:10;4.93;;;3.20;;
14276;SDS011;7222;57.346;12.150;2023-11-21T05:57:37;4.60;;;3.67;;
14276;SDS011;7222;57.346;12.150;2023-11-21T06:00:06;6.30;;;3.40;;
14276;SDS011;7222;57.346;12.150;2023-11-21T06:02:45;4.77;;;3.10;;
14276;SDS011;7222;57.346;12.150;2023-11-21T06:05:14;5.43;;;3.63;;
14276;SDS011;7222;57.346;12.150;2023-11-21T06:07:40;6.23;;;3.53;;
14276;SDS011;7222;57.346;12.150;2023-11-21T06:10:08;9.67;;;4.60;;
14276;SDS011;7222;57.346;12.150;2023-11-21T06:12:38;4.87;;;3.73;;
14276;SDS011;7222;57.346;12.150;2023-11-21T06:15:05;4.20;;;3.13;;
14276;SDS011;7222;57.346;12.150;2023-11-21T06:17:34;5.67;;;4.00;;
14276;SDS011;7222;57.346;12.150;2023-11-21T06:20:02;6.03;;;4.03;;
14276;SDS011;7222;57.346;12.150;2023-11-21T06:22:35;5.30;;;3.60;;
14276;SDS011;7222;57.346;12.150;2023-11-21T06:25:03;4.97;;;3.93;;
14276;SDS011;7222;57.346;12.150;2023-11-21T06:27:31;6.30;;;4.23;;
14276;SDS011;7222;57.346;12.150;2023-11-21T06:29:59;5.33;;;3.60;;
14276;SDS011;7222;57.346;12.150;2023-11-21T06:32:26;4.47;;;3.63;;
14276;SDS011;7222;57.346;12.150;2023-11-21T06:34:54;7.10;;;3.43;;
14276;SDS011;7222;57.346;12.150;2023-11-21T06:37:24;5.70;;;4.40;;
14276;SDS011;7222;57.346;12.150;2023-11-21T06:39:53;4.93;;;3.93;;
14276;SDS011;7222;57.346;12.150;2023-11-21T06:42:21;6.67;;;3.80;;
14276;SDS011;7222;57.346;12.150;2023-11-21T06:44:49;6.30;;;3.93;;
14276;SDS011;7222;57.346;12.150;2023-11-21T06:47:16;5.10;;;4.33;;
14276;SDS011;7222;57.346;12.150;2023-11-21T06:49:45;5.97;;;3.67;;
14276;SDS011;7222;57.346;12.150;2023-11-21T06:52:13;3.53;;;2.60;;
14276;SDS011;7222;57.346;12.150;2023-11-21T06:54:39;4.83;;;3.63;;
14276;SDS011;7222;57.346;12.150;2023-11-21T06:57:08;5.43;;;3.60;;
14276;SDS011;7222;57.346;12.150;2023-11-21T06:59:35;4.73;;;3.13;;
14276;SDS011;7222;57.346;12.150;2023-11-21T07:02:02;6.13;;;3.93;;
14276;SDS011;7222;57.346;12.150;2023-11-21T07:04:31;3.13;;;2.53;;
14276;SDS011;7222;57.346;12.150;2023-11-21T07:06:58;6.43;;;4.07;;
14276;SDS011;7222;57.346;12.150;2023-11-21T07:09:25;4.70;;;3.37;;
14276;SDS011;7222;57.346;12.150;2023-11-21T07:11:52;3.43;;;3.00;;
14276;SDS011;7222;57.346;12.150;2023-11-21T07:14:21;5.60;;;4.07;;
14276;SDS011;7222;57.346;12.150;2023-11-21T07:16:48;7.47;;;4.63;;
14276;SDS011;7222;57.346;12.150;2023-11-21T07:19:16;5.53;;;3.87;;
14276;SDS011;7222;57.346;12.150;2023-11-21T07:21:43;5.27;;;3.57;;
14276;SDS011;7222;57.346;12.150;2023-11-21T07:24:09;6.03;;;3.67;;
14276;SDS011;7222;57.346;12.150;2023-11-21T07:26:36;5.23;;;3.87;;
14276;SDS011;7222;57.346;12.150;2023-11-21T07:29:03;6.33;;;3.90;;
14276;SDS011;7222;57.346;12.150;2023-11-21T07:31:32;4.93;;;3.57;;
14276;SDS011;7222;57.346;12.150;2023-11-21T07:34:00;5.20;;;3.83;;
14276;SDS011;7222;57.346;12.150;2023-11-21T07:36:27;6.57;;;4.23;;
14276;SDS011;7222;57.346;12.150;2023-11-21T07:38:54;3.57;;;3.13;;
14276;SDS011;7222;57.346;12.150;2023-11-21T07:41:21;5.67;;;3.47;;
14276;SDS011;7222;57.346;12.150;2023-11-21T07:43:48;4.30;;;3.07;;
14276;SDS011;7222;57.346;12.150;2023-11-21T07:46:14;6.23;;;4.20;;
14276;SDS011;7222;57.346;12.150;2023-11-21T07:48:43;5.53;;;3.83;;
14276;SDS011;7222;57.346;12.150;2023-11-21T07:51:11;4.97;;;3.43;;
14276;SDS011;7222;57.346;12.150;2023-11-21T07:53:38;5.03;;;3.30;;
14276;SDS011;7222;57.346;12.150;2023-11-21T07:56:06;5.70;;;3.93;;
14276;SDS011;7222;57.346;12.150;2023-11-21T07:58:34;4.37;;;3.30;;
14276;SDS011;7222;57.346;12.150;2023-11-21T08:01:02;4.77;;;3.73;;
14276;SDS011;7222;57.346;12.150;2023-11-21T08:03:29;7.77;;;3.80;;
14276;SDS011;7222;57.346;12.150;2023-11-21T08:05:57;4.80;;;3.40;;
14276;SDS011;7222;57.346;12.150;2023-11-21T08:08:24;6.23;;;3.90;;
14276;SDS011;7222;57.346;12.150;2023-11-21T08:10:52;7.43;;;3.93;;
14276;SDS011;7222;57.346;12.150;2023-11-21T08:13:22;4.93;;;3.23;;
14276;SDS011;7222;57.346;12.150;2023-11-21T08:15:49;3.30;;;3.00;;
14276;SDS011;7222;57.346;12.150;2023-11-21T08:18:16;7.07;;;3.70;;
14276;SDS011;7222;57.346;12.150;2023-11-21T08:20:43;4.17;;;3.10;;
14276;SDS011;7222;57.346;12.150;2023-11-21T08:23:14;4.63;;;3.20;;
14276;SDS011;7222;57.346;12.150;2023-11-21T08:25:42;4.33;;;3.77;;
14276;SDS011;7222;57.346;12.150;2023-11-21T08:28:09;5.80;;;3.40;;
14276;SDS011;7222;57.346;12.150;2023-11-21T08:30:36;5.37;;;3.40;;
14276;SDS011;7222;57.346;12.150;2023-11-21T08:33:03;6.67;;;3.70;;
14276;SDS011;7222;57.346;12.150;2023-11-21T08:35:30;5.70;;;4.10;;
14276;SDS011;7222;57.346;12.150;2023-11-21T08:37:57;6.20;;;3.93;;
14276;SDS011;7222;57.346;12.150;2023-11-21T08:40:25;6.60;;;4.23;;
14276;SDS011;7222;57.346;12.150;2023-11-21T08:42:52;5.87;;;3.80;;
14276;SDS011;7222;57.346;12.150;2023-11-21T08:45:20;4.70;;;3.30;;
14276;SDS011;7222;57.346;12.150;2023-11-21T08:47:47;5.70;;;3.60;;
14276;SDS011;7222;57.346;12.150;2023-11-21T08:50:15;5.57;;;3.40;;
14276;SDS011;7222;57.346;12.150;2023-11-21T08:52:42;4.53;;;2.90;;
14276;SDS011;7222;57.346;12.150;2023-11-21T08:55:10;6.17;;;3.00;;
14276;SDS011;7222;57.346;12.150;2023-11-21T08:57:40;6.63;;;3.73;;
14276;SDS011;7222;57.346;12.150;2023-11-21T09:00:10;5.37;;;3.50;;
14276;SDS011;7222;57.346;12.150;2023-11-21T09:02:40;5.70;;;3.10;;
14276;SDS011;7222;57.346;12.150;2023-11-21T09:05:08;7.07;;;3.53;;
14276;SDS011;7222;57.346;12.150;2023-11-21T09:07:35;6.90;;;4.27;;
14276;SDS011;7222;57.346;12.150;2023-11-21T09:10:03;5.70;;;3.80;;
14276;SDS011;7222;57.346;12.150;2023-11-21T09:12:32;3.67;;;2.87;;
14276;SDS011;7222;57.346;12.150;2023-11-21T09:15:01;4.33;;;2.73;;
14276;SDS011;7222;57.346;12.150;2023-11-21T09:17:29;5.63;;;3.30;;
14276;SDS011;7222;57.346;12.150;2023-11-21T09:19:56;5.97;;;3.17;;
14276;SDS011;7222;57.346;12.150;2023-11-21T09:22:23;5.13;;;3.30;;
14276;SDS011;7222;57.346;12.150;2023-11-21T09:24:50;5.20;;;3.63;;
14276;SDS011;7222;57.346;12.150;2023-11-21T09:27:17;4.60;;;3.07;;
14276;SDS011;7222;57.346;12.150;2023-11-21T09:29:46;3.87;;;3.07;;
14276;SDS011;7222;57.346;12.150;2023-11-21T09:32:16;4.60;;;3.20;;
14276;SDS011;7222;57.346;12.150;2023-11-21T09:34:43;4.20;;;3.03;;
14276;SDS011;7222;57.346;12.150;2023-11-21T09:37:10;4.83;;;3.53;;
14276;SDS011;7222;57.346;12.150;2023-11-21T09:39:37;5.13;;;3.60;;
14276;SDS011;7222;57.346;12.150;2023-11-21T09:42:07;6.23;;;3.73;;
14276;SDS011;7222;57.346;12.150;2023-11-21T09:44:40;5.77;;;3.97;;
14276;SDS011;7222;57.346;12.150;2023-11-21T09:47:14;6.03;;;3.87;;
14276;SDS011;7222;57.346;12.150;2023-11-21T09:49:46;4.77;;;3.40;;
14276;SDS011;7222;57.346;12.150;2023-11-21T09:52:22;4.57;;;3.60;;
14276;SDS011;7222;57.346;12.150;2023-11-21T09:54:51;4.43;;;3.23;;
14276;SDS011;7222;57.346;12.150;2023-11-21T09:57:19;5.33;;;3.50;;
14276;SDS011;7222;57.346;12.150;2023-11-21T09:59:48;4.93;;;3.53;;
14276;SDS011;7222;57.346;12.150;2023-11-21T10:02:21;4.63;;;3.70;;
14276;SDS011;7222;57.346;12.150;2023-11-21T10:04:51;6.03;;;4.03;;
14276;SDS011;7222;57.346;12.150;2023-11-21T10:07:19;5.17;;;3.40;;
14276;SDS011;7222;57.346;12.150;2023-11-21T10:09:47;4.87;;;3.97;;
14276;SDS011;7222;57.346;12.150;2023-11-21T10:12:14;4.60;;;3.70;;
14276;SDS011;7222;57.346;12.150;2023-11-21T10:14:42;4.40;;;3.40;;
14276;SDS011;7222;57.346;12.150;2023-11-21T10:17:12;5.37;;;3.57;;
14276;SDS011;7222;57.346;12.150;2023-11-21T10:19:45;4.70;;;3.60;;
14276;SDS011;7222;57.346;12.150;2023-11-21T10:22:13;3.53;;;2.87;;
14276;SDS011;7222;57.346;12.150;2023-11-21T10:24:42;5.60;;;3.43;;
14276;SDS011;7222;57.346;12.150;2023-11-21T10:27:09;5.10;;;3.83;;
14276;SDS011;7222;57.346;12.150;2023-11-21T10:29:36;3.10;;;2.60;;
14276;SDS011;7222;57.346;12.150;2023-11-21T10:32:04;4.90;;;3.40;;
14276;SDS011;7222;57.346;12.150;2023-11-21T10:34:31;5.03;;;3.70;;
14276;SDS011;7222;57.346;12.150;2023-11-21T10:37:01;4.90;;;3.13;;
14276;SDS011;7222;57.346;12.150;2023-11-21T10:39:38;6.03;;;3.57;;
14276;SDS011;7222;57.346;12.150;2023-11-21T10:42:07;4.87;;;3.10;;
14276;SDS011;7222;57.346;12.150;2023-11-21T10:44:35;3.67;;;2.83;;
14276;SDS011;7222;57.346;12.150;2023-11-21T10:47:02;4.27;;;2.93;;
14276;SDS011;7222;57.346;12.150;2023-11-21T10:49:30;4.23;;;2.97;;
14276;SDS011;7222;57.346;12.150;2023-11-21T10:51:57;4.33;;;3.47;;
14276;SDS011;7222;57.346;12.150;2023-11-21T10:54:25;5.00;;;3.50;;
14276;SDS011;7222;57.346;12.150;2023-11-21T10:56:53;4.30;;;2.73;;
14276;SDS011;7222;57.346;12.150;2023-11-21T10:59:23;4.90;;;3.10;;
14276;SDS011;7222;57.346;12.150;2023-11-21T11:01:54;3.53;;;2.73;;
14276;SDS011;7222;57.346;12.150;2023-11-21T11:04:26;4.80;;;3.23;;
14276;SDS011;7222;57.346;12.150;2023-11-21T11:06:54;4.30;;;2.83;;
14276;SDS011;7222;57.346;12.150;2023-11-21T11:09:23;5.63;;;4.13;;
14276;SDS011;7222;57.346;12.150;2023-11-21T11:11:52;4.03;;;3.00;;
14276;SDS011;7222;57.346;12.150;2023-11-21T11:14:19;4.23;;;2.83;;
14276;SDS011;7222;57.346;12.150;2023-11-21T11:16:50;4.20;;;2.90;;
14276;SDS011;7222;57.346;12.150;2023-11-21T11:19:19;4.03;;;2.60;;
14276;SDS011;7222;57.346;12.150;2023-11-21T11:21:49;5.67;;;3.70;;
14276;SDS011;7222;57.346;12.150;2023-11-21T11:24:27;3.17;;;2.67;;
14276;SDS011;7222;57.346;12.150;2023-11-21T11:27:24;4.33;;;3.40;;
14276;SDS011;7222;57.346;12.150;2023-11-21T11:30:04;5.97;;;3.30;;
14276;SDS011;7222;57.346;12.150;2023-11-21T11:32:43;4.10;;;2.83;;
14276;SDS011;7222;57.346;12.150;2023-11-21T11:35:23;4.03;;;3.27;;
14276;SDS011;7222;57.346;12.150;2023-11-21T11:37:55;4.17;;;3.10;;
14276;SDS011;7222;57.346;12.150;2023-11-21T11:40:24;3.17;;;2.50;;
14276;SDS011;7222;57.346;12.150;2023-11-21T11:43:05;3.90;;;2.90;;
14276;SDS011;7222;57.346;12.150;2023-11-21T11:45:33;3.93;;;3.13;;
14276;SDS011;7222;57.346;12.150;2023-11-21T11:48:06;3.50;;;2.60;;
14276;SDS011;7222;57.346;12.150;2023-11-21T11:50:33;3.80;;;3.10;;
14276;SDS011;7222;57.346;12.150;2023-11-21T11:53:11;3.23;;;2.63;;
14276;SDS011;7222;57.346;12.150;2023-11-21T11:55:39;3.90;;;2.73;;
14276;SDS011;7222;57.346;12.150;2023-11-21T11:58:07;4.20;;;3.17;;
14276;SDS011;7222;57.346;12.150;2023-11-21T12:00:35;4.53;;;3.33;;
14276;SDS011;7222;57.346;12.150;2023-11-21T12:03:05;4.33;;;2.70;;
14276;SDS011;7222;57.346;12.150;2023-11-21T12:05:34;3.07;;;2.70;;
14276;SDS011;7222;57.346;12.150;2023-11-21T12:08:04;3.57;;;2.77;;
14276;SDS011;7222;57.346;12.150;2023-11-21T12:10:32;3.70;;;3.13;;
14276;SDS011;7222;57.346;12.150;2023-11-21T12:13:01;3.43;;;2.43;;
14276;SDS011;7222;57.346;12.150;2023-11-21T12:15:31;4.10;;;3.03;;
14276;SDS011;7222;57.346;12.150;2023-11-21T12:17:58;4.60;;;3.10;;
14276;SDS011;7222;57.346;12.150;2023-11-21T12:20:26;4.27;;;2.90;;
14276;SDS011;7222;57.346;12.150;2023-11-21T12:22:54;3.93;;;2.50;;
14276;SDS011;7222;57.346;12.150;2023-11-21T12:25:24;3.00;;;2.57;;
14276;SDS011;7222;57.346;12.150;2023-11-21T12:27:54;3.60;;;2.60;;
14276;SDS011;7222;57.346;12.150;2023-11-21T12:30:22;3.90;;;2.73;;
14276;SDS011;7222;57.346;12.150;2023-11-21T12:32:55;3.83;;;2.80;;
14276;SDS011;7222;57.346;12.150;2023-11-21T12:35:24;3.60;;;2.57;;
14276;SDS011;7222;57.346;12.150;2023-11-21T12:37:52;3.67;;;2.23;;
14276;SDS011;7222;57.346;12.150;2023-11-21T12:40:22;3.00;;;2.70;;
14276;SDS011;7222;57.346;12.150;2023-11-21T12:42:50;3.03;;;2.60;;
14276;SDS011;7222;57.346;12.150;2023-11-21T12:45:19;2.60;;;2.40;;
14276;SDS011;7222;57.346;12.150;2023-11-21T12:47:46;4.73;;;2.40;;
14276;SDS011;7222;57.346;12.150;2023-11-21T12:50:15;4.13;;;2.43;;
14276;SDS011;7222;57.346;12.150;2023-11-21T12:52:49;3.23;;;2.50;;
14276;SDS011;7222;57.346;12.150;2023-11-21T12:55:18;3.57;;;2.20;;
14276;SDS011;7222;57.346;12.150;2023-11-21T12:57:48;4.00;;;2.43;;
14276;SDS011;7222;57.346;12.150;2023-11-21T13:00:17;3.23;;;2.37;;
14276;SDS011;7222;57.346;12.150;2023-11-21T13:02:53;3.87;;;2.80;;
14276;SDS011;7222;57.346;12.150;2023-11-21T13:05:31;3.70;;;2.93;;
14276;SDS011;7222;57.346;12.150;2023-11-21T13:07:59;3.60;;;2.67;;
14276;SDS011;7222;57.346;12.150;2023-11-21T13:10:29;3.77;;;2.70;;
14276;SDS011;7222;57.346;12.150;2023-11-21T13:12:57;2.80;;;2.60;;
14276;SDS011;7222;57.346;12.150;2023-11-21T13:15:25;3.00;;;2.57;;
14276;SDS011;7222;57.346;12.150;2023-11-21T13:17:52;3.37;;;2.93;;
14276;SDS011;7222;57.346;12.150;2023-11-21T13:20:21;2.73;;;2.40;;
14276;SDS011;7222;57.346;12.150;2023-11-21T13:22:51;4.13;;;2.70;;
14276;SDS011;7222;57.346;12.150;2023-11-21T13:25:19;3.07;;;2.37;;
14276;SDS011;7222;57.346;12.150;2023-11-21T13:27:47;2.30;;;2.10;;
14276;SDS011;7222;57.346;12.150;2023-11-21T13:30:14;4.30;;;3.03;;
14276;SDS011;7222;57.346;12.150;2023-11-21T13:32:41;3.60;;;2.50;;
14276;SDS011;7222;57.346;12.150;2023-11-21T13:35:09;2.43;;;2.10;;
14276;SDS011;7222;57.346;12.150;2023-11-21T13:37:46;3.50;;;2.60;;
14276;SDS011;7222;57.346;12.150;2023-11-21T13:40:18;3.30;;;2.20;;
14276;SDS011;7222;57.346;12.150;2023-11-21T13:42:47;4.07;;;2.63;;
14276;SDS011;7222;57.346;12.150;2023-11-21T13:45:18;3.33;;;2.73;;
14276;SDS011;7222;57.346;12.150;2023-11-21T13:47:47;3.93;;;2.50;;
14276;SDS011;7222;57.346;12.150;2023-11-21T13:50:16;3.23;;;2.80;;
14276;SDS011;7222;57.346;12.150;2023-11-21T13:52:47;4.60;;;2.37;;
14276;SDS011;7222;57.346;12.150;2023-11-21T13:55:16;2.60;;;2.33;;
14276;SDS011;7222;57.346;12.150;2023-11-21T13:57:44;2.87;;;2.57;;
14276;SDS011;7222;57.346;12.150;2023-11-21T14:00:14;3.53;;;2.27;;
14276;SDS011;7222;57.346;12.150;2023-11-21T14:03:06;3.60;;;2.33;;
14276;SDS011;7222;57.346;12.150;2023-11-21T14:05:41;4.90;;;2.50;;
14276;SDS011;7222;57.346;12.150;2023-11-21T14:08:08;3.40;;;2.50;;
14276;SDS011;7222;57.346;12.150;2023-11-21T14:10:38;2.90;;;2.60;;
14276;SDS011;7222;57.346;12.150;2023-11-21T14:13:08;3.93;;;2.23;;
14276;SDS011;7222;57.346;12.150;2023-11-21T14:15:37;3.63;;;2.20;;
14276;SDS011;7222;57.346;12.150;2023-11-21T14:18:08;5.33;;;2.30;;
14276;SDS011;7222;57.346;12.150;2023-11-21T14:20:36;2.47;;;2.23;;
14276;SDS011;7222;57.346;12.150;2023-11-21T14:23:04;2.40;;;2.17;;
14276;SDS011;7222;57.346;12.150;2023-11-21T14:25:31;2.63;;;2.13;;
14276;SDS011;7222;57.346;12.150;2023-11-21T14:28:00;2.20;;;2.00;;
14276;SDS011;7222;57.346;12.150;2023-11-21T14:30:28;2.93;;;2.17;;
14276;SDS011;7222;57.346;12.150;2023-11-21T14:32:57;3.10;;;2.27;;
14276;SDS011;7222;57.346;12.150;2023-11-21T14:35:24;3.10;;;2.13;;
14276;SDS011;7222;57.346;12.150;2023-11-21T14:37:51;3.87;;;2.07;;
14276;SDS011;7222;57.346;12.150;2023-11-21T14:40:18;2.00;;;1.80;;
14276;SDS011;7222;57.346;12.150;2023-11-21T14:42:49;2.27;;;2.07;;
14276;SDS011;7222;57.346;12.150;2023-11-21T14:45:19;2.47;;;2.07;;
14276;SDS011;7222;57.346;12.150;2023-11-21T14:47:48;2.40;;;2.13;;
14276;SDS011;7222;57.346;12.150;2023-11-21T14:50:23;3.10;;;2.10;;
14276;SDS011;7222;57.346;12.150;2023-11-21T14:53:15;2.90;;;2.13;;
14276;SDS011;7222;57.346;12.150;2023-11-21T14:55:59;2.63;;;2.20;;